sensor_id;sensor_type;location;lat;lon;timestamp;temperature;humidity
47521;DHT22;32291;52.010;4.446;2023-03-15T00:00:47;3.40;99.90
47521;DHT22;32291;52.010;4.446;2023-03-15T00:01:49;3.80;99.90
47521;DHT22;32291;52.010;4.446;2023-03-15T00:02:52;3.40;99.90
47521;DHT22;32291;52.010;4.446;2023-03-15T00:03:53;3.40;99.90
47521;DHT22;32291;52.010;4.446;2023-03-15T00:04:55;3.30;99.90
47521;DHT22;32291;52.010;4.446;2023-03-15T00:06:00;3.30;99.90
47521;DHT22;32291;52.010;4.446;2023-03-15T00:07:01;3.30;99.90
47521;DHT22;32291;52.010;4.446;2023-03-15T00:08:03;3.30;99.90
47521;DHT22;32291;52.010;4.446;2023-03-15T00:09:05;3.20;99.90
47521;DHT22;32291;52.010;4.446;2023-03-15T00:10:07;3.20;99.90
47521;DHT22;32291;52.010;4.446;2023-03-15T00:11:09;3.20;99.90
47521;DHT22;32291;52.010;4.446;2023-03-15T00:12:11;3.20;99.90
47521;DHT22;32291;52.010;4.446;2023-03-15T00:13:14;3.20;99.90
47521;DHT22;32291;52.010;4.446;2023-03-15T00:14:17;3.20;99.90
47521;DHT22;32291;52.010;4.446;2023-03-15T00:15:19;3.10;99.90
47521;DHT22;32291;52.010;4.446;2023-03-15T00:16:21;3.10;99.90
47521;DHT22;32291;52.010;4.446;2023-03-15T00:17:27;3.20;99.90
47521;DHT22;32291;52.010;4.446;2023-03-15T00:18:29;3.10;99.90
47521;DHT22;32291;52.010;4.446;2023-03-15T00:19:31;3.20;99.90
47521;DHT22;32291;52.010;4.446;2023-03-15T00:20:36;3.20;99.90
47521;DHT22;32291;52.010;4.446;2023-03-15T00:21:38;3.20;99.90
47521;DHT22;32291;52.010;4.446;2023-03-15T00:22:43;3.10;99.90
47521;DHT22;32291;52.010;4.446;2023-03-15T00:23:45;3.10;99.90
47521;DHT22;32291;52.010;4.446;2023-03-15T00:24:47;3.00;99.90
47521;DHT22;32291;52.010;4.446;2023-03-15T00:25:50;3.00;99.90
47521;DHT22;32291;52.010;4.446;2023-03-15T00:26:53;3.00;99.90
47521;DHT22;32291;52.010;4.446;2023-03-15T00:27:54;3.00;99.90
47521;DHT22;32291;52.010;4.446;2023-03-15T00:28:56;2.90;99.90
47521;DHT22;32291;52.010;4.446;2023-03-15T00:29:58;2.90;99.90
47521;DHT22;32291;52.010;4.446;2023-03-15T00:31:06;2.90;99.90
47521;DHT22;32291;52.010;4.446;2023-03-15T00:32:11;3.10;99.90
47521;DHT22;32291;52.010;4.446;2023-03-15T00:33:14;2.90;99.90
47521;DHT22;32291;52.010;4.446;2023-03-15T00:34:17;2.90;99.90
47521;DHT22;32291;52.010;4.446;2023-03-15T00:35:24;2.90;99.90
47521;DHT22;32291;52.010;4.446;2023-03-15T00:36:26;2.90;99.90
47521;DHT22;32291;52.010;4.446;2023-03-15T00:37:29;2.90;99.90
47521;DHT22;32291;52.010;4.446;2023-03-15T00:38:33;2.90;99.90
47521;DHT22;32291;52.010;4.446;2023-03-15T00:39:36;2.90;99.90
47521;DHT22;32291;52.010;4.446;2023-03-15T00:40:40;2.90;99.90
47521;DHT22;32291;52.010;4.446;2023-03-15T00:41:41;2.90;99.90
47521;DHT22;32291;52.010;4.446;2023-03-15T00:42:45;3.20;99.90
47521;DHT22;32291;52.010;4.446;2023-03-15T00:43:50;2.90;99.90
47521;DHT22;32291;52.010;4.446;2023-03-15T00:44:53;2.90;99.90
47521;DHT22;32291;52.010;4.446;2023-03-15T00:45:57;2.90;99.90
47521;DHT22;32291;52.010;4.446;2023-03-15T00:46:59;2.80;99.90
47521;DHT22;32291;52.010;4.446;2023-03-15T00:48:01;3.20;99.90
47521;DHT22;32291;52.010;4.446;2023-03-15T00:49:03;2.70;99.90
47521;DHT22;32291;52.010;4.446;2023-03-15T00:50:05;3.10;99.90
47521;DHT22;32291;52.010;4.446;2023-03-15T00:51:12;2.70;99.90
47521;DHT22;32291;52.010;4.446;2023-03-15T00:52:16;2.60;99.90
47521;DHT22;32291;52.010;4.446;2023-03-15T00:53:19;2.60;99.90
47521;DHT22;32291;52.010;4.446;2023-03-15T00:54:22;2.50;99.90
47521;DHT22;32291;52.010;4.446;2023-03-15T00:55:24;2.50;99.90
47521;DHT22;32291;52.010;4.446;2023-03-15T00:56:27;2.50;99.90
47521;DHT22;32291;52.010;4.446;2023-03-15T00:57:32;2.50;99.90
47521;DHT22;32291;52.010;4.446;2023-03-15T00:58:34;2.40;99.90
47521;DHT22;32291;52.010;4.446;2023-03-15T00:59:37;2.40;99.90
47521;DHT22;32291;52.010;4.446;2023-03-15T01:00:38;2.30;99.90
47521;DHT22;32291;52.010;4.446;2023-03-15T01:01:40;2.80;99.90
47521;DHT22;32291;52.010;4.446;2023-03-15T01:02:45;2.30;99.90
47521;DHT22;32291;52.010;4.446;2023-03-15T01:03:47;2.20;99.90
47521;DHT22;32291;52.010;4.446;2023-03-15T01:04:49;2.20;99.90
47521;DHT22;32291;52.010;4.446;2023-03-15T01:05:51;2.20;99.90
47521;DHT22;32291;52.010;4.446;2023-03-15T01:06:53;2.10;99.90
47521;DHT22;32291;52.010;4.446;2023-03-15T01:07:55;2.10;99.90
47521;DHT22;32291;52.010;4.446;2023-03-15T01:08:57;2.00;99.90
47521;DHT22;32291;52.010;4.446;2023-03-15T01:10:00;2.00;99.90
47521;DHT22;32291;52.010;4.446;2023-03-15T01:11:04;2.00;99.90
47521;DHT22;32291;52.010;4.446;2023-03-15T01:12:08;2.00;99.90
47521;DHT22;32291;52.010;4.446;2023-03-15T01:13:10;2.10;99.90
47521;DHT22;32291;52.010;4.446;2023-03-15T01:14:12;2.10;99.90
47521;DHT22;32291;52.010;4.446;2023-03-15T01:15:14;2.20;99.90
47521;DHT22;32291;52.010;4.446;2023-03-15T01:16:16;2.20;99.90
47521;DHT22;32291;52.010;4.446;2023-03-15T01:17:18;2.20;99.90
47521;DHT22;32291;52.010;4.446;2023-03-15T01:18:20;2.30;99.90
47521;DHT22;32291;52.010;4.446;2023-03-15T01:19:22;2.30;99.90
47521;DHT22;32291;52.010;4.446;2023-03-15T01:20:25;2.20;99.90
47521;DHT22;32291;52.010;4.446;2023-03-15T01:21:27;2.50;99.90
47521;DHT22;32291;52.010;4.446;2023-03-15T01:22:28;2.20;99.90
47521;DHT22;32291;52.010;4.446;2023-03-15T01:23:30;2.20;99.90
47521;DHT22;32291;52.010;4.446;2023-03-15T01:24:32;2.10;99.90
47521;DHT22;32291;52.010;4.446;2023-03-15T01:25:33;2.10;99.90
47521;DHT22;32291;52.010;4.446;2023-03-15T01:26:36;2.20;99.90
47521;DHT22;32291;52.010;4.446;2023-03-15T01:27:38;2.20;99.90
47521;DHT22;32291;52.010;4.446;2023-03-15T01:28:40;2.20;99.90
47521;DHT22;32291;52.010;4.446;2023-03-15T01:29:42;2.20;99.90
47521;DHT22;32291;52.010;4.446;2023-03-15T01:30:51;2.20;99.90
47521;DHT22;32291;52.010;4.446;2023-03-15T01:31:53;2.50;99.90
47521;DHT22;32291;52.010;4.446;2023-03-15T01:32:55;2.70;99.90
47521;DHT22;32291;52.010;4.446;2023-03-15T01:33:57;2.30;99.90
47521;DHT22;32291;52.010;4.446;2023-03-15T01:35:01;2.30;99.90
47521;DHT22;32291;52.010;4.446;2023-03-15T01:36:06;2.30;99.90
47521;DHT22;32291;52.010;4.446;2023-03-15T01:37:09;2.30;99.90
47521;DHT22;32291;52.010;4.446;2023-03-15T01:38:15;2.20;99.90
47521;DHT22;32291;52.010;4.446;2023-03-15T01:39:17;2.20;99.90
47521;DHT22;32291;52.010;4.446;2023-03-15T01:40:19;2.20;99.90
47521;DHT22;32291;52.010;4.446;2023-03-15T01:41:21;2.20;99.90
47521;DHT22;32291;52.010;4.446;2023-03-15T01:42:25;2.20;99.90
47521;DHT22;32291;52.010;4.446;2023-03-15T01:43:29;2.20;99.90
47521;DHT22;32291;52.010;4.446;2023-03-15T01:44:57;2.20;99.90
47521;DHT22;32291;52.010;4.446;2023-03-15T01:47:29;2.20;99.90
47521;DHT22;32291;52.010;4.446;2023-03-15T01:50:04;2.20;99.90
47521;DHT22;32291;52.010;4.446;2023-03-15T01:51:36;2.20;99.90
47521;DHT22;32291;52.010;4.446;2023-03-15T01:52:43;2.20;99.90
47521;DHT22;32291;52.010;4.446;2023-03-15T01:53:55;2.20;99.90
47521;DHT22;32291;52.010;4.446;2023-03-15T01:55:19;2.10;99.90
47521;DHT22;32291;52.010;4.446;2023-03-15T01:56:22;2.00;99.90
47521;DHT22;32291;52.010;4.446;2023-03-15T01:57:35;2.00;99.90
47521;DHT22;32291;52.010;4.446;2023-03-15T01:58:43;2.00;99.90
47521;DHT22;32291;52.010;4.446;2023-03-15T01:59:55;1.90;99.90
47521;DHT22;32291;52.010;4.446;2023-03-15T02:01:00;1.90;99.90
47521;DHT22;32291;52.010;4.446;2023-03-15T02:02:03;1.80;99.90
47521;DHT22;32291;52.010;4.446;2023-03-15T02:03:09;1.80;99.90
47521;DHT22;32291;52.010;4.446;2023-03-15T02:04:22;1.80;99.90
47521;DHT22;32291;52.010;4.446;2023-03-15T02:05:34;1.90;99.90
47521;DHT22;32291;52.010;4.446;2023-03-15T02:06:41;1.70;99.90
47521;DHT22;32291;52.010;4.446;2023-03-15T02:07:47;1.90;99.90
47521;DHT22;32291;52.010;4.446;2023-03-15T02:09:02;2.20;99.90
47521;DHT22;32291;52.010;4.446;2023-03-15T02:10:14;1.80;99.90
47521;DHT22;32291;52.010;4.446;2023-03-15T02:11:20;1.80;99.90
47521;DHT22;32291;52.010;4.446;2023-03-15T02:12:25;1.80;99.90
47521;DHT22;32291;52.010;4.446;2023-03-15T02:13:29;1.90;99.90
47521;DHT22;32291;52.010;4.446;2023-03-15T02:14:34;1.90;99.90
47521;DHT22;32291;52.010;4.446;2023-03-15T02:15:36;1.90;99.90
47521;DHT22;32291;52.010;4.446;2023-03-15T02:16:37;2.00;99.90
47521;DHT22;32291;52.010;4.446;2023-03-15T02:17:42;2.00;99.90
47521;DHT22;32291;52.010;4.446;2023-03-15T02:18:45;2.10;99.90
47521;DHT22;32291;52.010;4.446;2023-03-15T02:19:58;2.20;99.90
47521;DHT22;32291;52.010;4.446;2023-03-15T02:21:53;2.20;99.90
47521;DHT22;32291;52.010;4.446;2023-03-15T02:23:14;2.10;99.90
47521;DHT22;32291;52.010;4.446;2023-03-15T02:26:28;2.10;99.90
47521;DHT22;32291;52.010;4.446;2023-03-15T02:27:54;2.10;99.90
47521;DHT22;32291;52.010;4.446;2023-03-15T02:28:58;2.00;99.90
47521;DHT22;32291;52.010;4.446;2023-03-15T02:30:01;2.00;99.90
47521;DHT22;32291;52.010;4.446;2023-03-15T02:31:05;2.00;99.90
47521;DHT22;32291;52.010;4.446;2023-03-15T02:32:07;2.00;99.90
47521;DHT22;32291;52.010;4.446;2023-03-15T02:33:25;1.90;99.90
47521;DHT22;32291;52.010;4.446;2023-03-15T02:34:30;1.80;99.90
47521;DHT22;32291;52.010;4.446;2023-03-15T02:35:32;1.80;99.90
47521;DHT22;32291;52.010;4.446;2023-03-15T02:36:35;1.80;99.90
47521;DHT22;32291;52.010;4.446;2023-03-15T02:37:37;2.00;99.90
47521;DHT22;32291;52.010;4.446;2023-03-15T02:38:40;1.70;99.90
47521;DHT22;32291;52.010;4.446;2023-03-15T02:39:41;1.60;99.90
47521;DHT22;32291;52.010;4.446;2023-03-15T02:40:45;1.60;99.90
47521;DHT22;32291;52.010;4.446;2023-03-15T02:41:57;1.60;99.90
47521;DHT22;32291;52.010;4.446;2023-03-15T02:43:04;1.50;99.90
47521;DHT22;32291;52.010;4.446;2023-03-15T02:44:16;1.50;99.90
47521;DHT22;32291;52.010;4.446;2023-03-15T02:45:25;1.40;99.90
47521;DHT22;32291;52.010;4.446;2023-03-15T02:46:29;1.40;99.90
47521;DHT22;32291;52.010;4.446;2023-03-15T02:47:32;1.30;99.90
47521;DHT22;32291;52.010;4.446;2023-03-15T02:48:35;1.30;99.90
47521;DHT22;32291;52.010;4.446;2023-03-15T02:49:42;1.40;99.90
47521;DHT22;32291;52.010;4.446;2023-03-15T02:50:47;1.30;99.90
47521;DHT22;32291;52.010;4.446;2023-03-15T02:51:49;1.30;99.90
47521;DHT22;32291;52.010;4.446;2023-03-15T02:52:51;1.40;99.90
47521;DHT22;32291;52.010;4.446;2023-03-15T02:53:53;1.20;99.90
47521;DHT22;32291;52.010;4.446;2023-03-15T02:54:55;1.20;99.90
47521;DHT22;32291;52.010;4.446;2023-03-15T02:55:57;1.20;99.90
47521;DHT22;32291;52.010;4.446;2023-03-15T02:57:00;1.40;99.90
47521;DHT22;32291;52.010;4.446;2023-03-15T02:58:03;1.20;99.90
47521;DHT22;32291;52.010;4.446;2023-03-15T02:59:05;1.20;99.90
47521;DHT22;32291;52.010;4.446;2023-03-15T03:00:08;1.20;99.90
47521;DHT22;32291;52.010;4.446;2023-03-15T03:01:16;1.30;99.90
47521;DHT22;32291;52.010;4.446;2023-03-15T03:02:18;1.30;99.90
47521;DHT22;32291;52.010;4.446;2023-03-15T03:03:20;1.30;99.90
47521;DHT22;32291;52.010;4.446;2023-03-15T03:04:25;1.30;99.90
47521;DHT22;32291;52.010;4.446;2023-03-15T03:05:27;1.40;99.90
47521;DHT22;32291;52.010;4.446;2023-03-15T03:06:29;1.40;99.90
47521;DHT22;32291;52.010;4.446;2023-03-15T03:07:31;1.50;99.90
47521;DHT22;32291;52.010;4.446;2023-03-15T03:08:33;1.50;99.90
47521;DHT22;32291;52.010;4.446;2023-03-15T03:09:35;2.20;99.90
47521;DHT22;32291;52.010;4.446;2023-03-15T03:10:37;1.60;99.90
47521;DHT22;32291;52.010;4.446;2023-03-15T03:11:39;1.60;99.90
47521;DHT22;32291;52.010;4.446;2023-03-15T03:12:41;1.60;99.90
47521;DHT22;32291;52.010;4.446;2023-03-15T03:13:43;1.60;99.90
47521;DHT22;32291;52.010;4.446;2023-03-15T03:14:45;1.60;99.90
47521;DHT22;32291;52.010;4.446;2023-03-15T03:15:50;1.60;99.90
47521;DHT22;32291;52.010;4.446;2023-03-15T03:16:58;1.70;99.90
47521;DHT22;32291;52.010;4.446;2023-03-15T03:18:01;1.70;99.90
47521;DHT22;32291;52.010;4.446;2023-03-15T03:19:03;1.80;99.90
47521;DHT22;32291;52.010;4.446;2023-03-15T03:20:06;2.00;99.90
47521;DHT22;32291;52.010;4.446;2023-03-15T03:21:11;2.10;99.90
47521;DHT22;32291;52.010;4.446;2023-03-15T03:22:15;2.20;99.90
47521;DHT22;32291;52.010;4.446;2023-03-15T03:23:17;2.30;99.90
47521;DHT22;32291;52.010;4.446;2023-03-15T03:24:19;2.30;99.90
47521;DHT22;32291;52.010;4.446;2023-03-15T03:25:21;2.30;99.90
47521;DHT22;32291;52.010;4.446;2023-03-15T03:26:27;2.30;99.90
47521;DHT22;32291;52.010;4.446;2023-03-15T03:27:33;2.20;99.90
47521;DHT22;32291;52.010;4.446;2023-03-15T03:28:37;2.30;99.90
47521;DHT22;32291;52.010;4.446;2023-03-15T03:29:40;2.20;99.90
47521;DHT22;32291;52.010;4.446;2023-03-15T03:30:42;2.20;99.90
47521;DHT22;32291;52.010;4.446;2023-03-15T03:31:44;2.30;99.90
47521;DHT22;32291;52.010;4.446;2023-03-15T03:32:46;2.20;99.90
47521;DHT22;32291;52.010;4.446;2023-03-15T03:33:49;2.30;99.90
47521;DHT22;32291;52.010;4.446;2023-03-15T03:34:51;2.20;99.90
47521;DHT22;32291;52.010;4.446;2023-03-15T03:35:59;2.20;99.90
47521;DHT22;32291;52.010;4.446;2023-03-15T03:37:02;2.10;99.90
47521;DHT22;32291;52.010;4.446;2023-03-15T03:38:04;2.20;99.90
47521;DHT22;32291;52.010;4.446;2023-03-15T03:39:06;2.10;99.90
47521;DHT22;32291;52.010;4.446;2023-03-15T03:40:08;2.10;99.90
47521;DHT22;32291;52.010;4.446;2023-03-15T03:41:13;2.20;99.90
47521;DHT22;32291;52.010;4.446;2023-03-15T03:42:15;2.20;99.90
47521;DHT22;32291;52.010;4.446;2023-03-15T03:43:17;2.10;99.90
47521;DHT22;32291;52.010;4.446;2023-03-15T03:44:19;2.20;99.90
47521;DHT22;32291;52.010;4.446;2023-03-15T03:45:20;2.20;99.90
47521;DHT22;32291;52.010;4.446;2023-03-15T03:46:22;2.20;99.90
47521;DHT22;32291;52.010;4.446;2023-03-15T03:47:24;2.20;99.90
47521;DHT22;32291;52.010;4.446;2023-03-15T03:48:25;2.20;99.90
47521;DHT22;32291;52.010;4.446;2023-03-15T03:49:27;2.20;99.90
47521;DHT22;32291;52.010;4.446;2023-03-15T03:50:29;2.20;99.90
47521;DHT22;32291;52.010;4.446;2023-03-15T03:51:31;2.20;99.90
47521;DHT22;32291;52.010;4.446;2023-03-15T03:52:35;2.20;99.90
47521;DHT22;32291;52.010;4.446;2023-03-15T03:53:36;2.10;99.90
47521;DHT22;32291;52.010;4.446;2023-03-15T03:54:38;2.30;99.90
47521;DHT22;32291;52.010;4.446;2023-03-15T03:55:40;2.10;99.90
47521;DHT22;32291;52.010;4.446;2023-03-15T03:56:43;2.10;99.90
47521;DHT22;32291;52.010;4.446;2023-03-15T03:57:45;2.10;99.90
47521;DHT22;32291;52.010;4.446;2023-03-15T03:58:46;2.10;99.90
47521;DHT22;32291;52.010;4.446;2023-03-15T03:59:48;2.00;99.90
47521;DHT22;32291;52.010;4.446;2023-03-15T04:00:51;2.00;99.90
47521;DHT22;32291;52.010;4.446;2023-03-15T04:01:55;2.00;99.90
47521;DHT22;32291;52.010;4.446;2023-03-15T04:02:57;1.90;99.90
47521;DHT22;32291;52.010;4.446;2023-03-15T04:03:59;1.90;99.90
47521;DHT22;32291;52.010;4.446;2023-03-15T04:05:01;2.00;99.90
47521;DHT22;32291;52.010;4.446;2023-03-15T04:06:02;2.00;99.90
47521;DHT22;32291;52.010;4.446;2023-03-15T04:07:06;1.90;99.90
47521;DHT22;32291;52.010;4.446;2023-03-15T04:08:07;1.90;99.90
47521;DHT22;32291;52.010;4.446;2023-03-15T04:09:09;1.90;99.90
47521;DHT22;32291;52.010;4.446;2023-03-15T04:10:14;1.90;99.90
47521;DHT22;32291;52.010;4.446;2023-03-15T04:11:16;1.80;99.90
47521;DHT22;32291;52.010;4.446;2023-03-15T04:12:18;1.90;99.90
47521;DHT22;32291;52.010;4.446;2023-03-15T04:13:20;1.90;99.90
47521;DHT22;32291;52.010;4.446;2023-03-15T04:14:23;1.80;99.90
47521;DHT22;32291;52.010;4.446;2023-03-15T04:15:25;1.80;99.90
47521;DHT22;32291;52.010;4.446;2023-03-15T04:16:27;1.70;99.90
47521;DHT22;32291;52.010;4.446;2023-03-15T04:17:29;1.70;99.90
47521;DHT22;32291;52.010;4.446;2023-03-15T04:18:30;1.70;99.90
47521;DHT22;32291;52.010;4.446;2023-03-15T04:19:32;1.70;99.90
47521;DHT22;32291;52.010;4.446;2023-03-15T04:20:33;1.60;99.90
47521;DHT22;32291;52.010;4.446;2023-03-15T04:21:35;1.80;99.90
47521;DHT22;32291;52.010;4.446;2023-03-15T04:22:37;1.60;99.90
47521;DHT22;32291;52.010;4.446;2023-03-15T04:23:39;1.50;99.90
47521;DHT22;32291;52.010;4.446;2023-03-15T04:24:41;1.50;99.90
47521;DHT22;32291;52.010;4.446;2023-03-15T04:25:46;1.40;99.90
47521;DHT22;32291;52.010;4.446;2023-03-15T04:26:50;1.40;99.90
47521;DHT22;32291;52.010;4.446;2023-03-15T04:27:52;1.40;99.90
47521;DHT22;32291;52.010;4.446;2023-03-15T04:29:02;1.40;99.90
47521;DHT22;32291;52.010;4.446;2023-03-15T04:30:04;1.40;99.90
47521;DHT22;32291;52.010;4.446;2023-03-15T04:31:06;1.40;99.90
47521;DHT22;32291;52.010;4.446;2023-03-15T04:32:10;1.40;99.90
47521;DHT22;32291;52.010;4.446;2023-03-15T04:33:12;1.40;99.90
47521;DHT22;32291;52.010;4.446;2023-03-15T04:34:14;1.50;99.90
47521;DHT22;32291;52.010;4.446;2023-03-15T04:35:16;1.50;99.90
47521;DHT22;32291;52.010;4.446;2023-03-15T04:36:18;1.60;99.90
47521;DHT22;32291;52.010;4.446;2023-03-15T04:37:20;1.70;99.90
47521;DHT22;32291;52.010;4.446;2023-03-15T04:38:21;1.70;99.90
47521;DHT22;32291;52.010;4.446;2023-03-15T04:39:26;1.70;99.90
47521;DHT22;32291;52.010;4.446;2023-03-15T04:40:28;1.80;99.90
47521;DHT22;32291;52.010;4.446;2023-03-15T04:41:35;1.90;99.90
47521;DHT22;32291;52.010;4.446;2023-03-15T04:42:36;1.90;99.90
47521;DHT22;32291;52.010;4.446;2023-03-15T04:43:40;1.90;99.90
47521;DHT22;32291;52.010;4.446;2023-03-15T04:44:42;1.90;99.90
47521;DHT22;32291;52.010;4.446;2023-03-15T04:45:44;1.90;99.90
47521;DHT22;32291;52.010;4.446;2023-03-15T04:46:46;1.90;99.90
47521;DHT22;32291;52.010;4.446;2023-03-15T04:47:48;1.90;99.90
47521;DHT22;32291;52.010;4.446;2023-03-15T04:48:51;1.90;99.90
47521;DHT22;32291;52.010;4.446;2023-03-15T04:49:52;1.90;99.90
47521;DHT22;32291;52.010;4.446;2023-03-15T04:50:54;1.90;99.90
47521;DHT22;32291;52.010;4.446;2023-03-15T04:51:55;1.80;99.90
47521;DHT22;32291;52.010;4.446;2023-03-15T04:52:57;1.80;99.90
47521;DHT22;32291;52.010;4.446;2023-03-15T04:54:00;1.80;99.90
47521;DHT22;32291;52.010;4.446;2023-03-15T04:55:02;1.90;99.90
47521;DHT22;32291;52.010;4.446;2023-03-15T04:56:04;1.80;99.90
47521;DHT22;32291;52.010;4.446;2023-03-15T04:57:06;1.80;99.90
47521;DHT22;32291;52.010;4.446;2023-03-15T04:58:08;1.80;99.90
47521;DHT22;32291;52.010;4.446;2023-03-15T04:59:09;1.80;99.90
47521;DHT22;32291;52.010;4.446;2023-03-15T05:00:11;1.90;99.90
47521;DHT22;32291;52.010;4.446;2023-03-15T05:01:14;1.80;99.90
47521;DHT22;32291;52.010;4.446;2023-03-15T05:02:16;1.80;99.90
47521;DHT22;32291;52.010;4.446;2023-03-15T05:03:18;1.90;99.90
47521;DHT22;32291;52.010;4.446;2023-03-15T05:04:20;1.70;99.90
47521;DHT22;32291;52.010;4.446;2023-03-15T05:05:22;1.70;99.90
47521;DHT22;32291;52.010;4.446;2023-03-15T05:06:24;1.60;99.90
47521;DHT22;32291;52.010;4.446;2023-03-15T05:07:26;2.30;99.90
47521;DHT22;32291;52.010;4.446;2023-03-15T05:08:28;1.50;99.90
47521;DHT22;32291;52.010;4.446;2023-03-15T05:09:29;1.40;99.90
47521;DHT22;32291;52.010;4.446;2023-03-15T05:10:38;1.30;99.90
47521;DHT22;32291;52.010;4.446;2023-03-15T05:11:39;1.30;99.90
47521;DHT22;32291;52.010;4.446;2023-03-15T05:12:41;1.30;99.90
47521;DHT22;32291;52.010;4.446;2023-03-15T05:13:43;1.10;99.90
47521;DHT22;32291;52.010;4.446;2023-03-15T05:14:45;1.10;99.90
47521;DHT22;32291;52.010;4.446;2023-03-15T05:15:47;1.10;99.90
47521;DHT22;32291;52.010;4.446;2023-03-15T05:16:49;1.00;99.90
47521;DHT22;32291;52.010;4.446;2023-03-15T05:17:56;0.90;99.90
47521;DHT22;32291;52.010;4.446;2023-03-15T05:18:58;0.90;99.90
47521;DHT22;32291;52.010;4.446;2023-03-15T05:19:59;0.90;99.90
47521;DHT22;32291;52.010;4.446;2023-03-15T05:21:01;0.90;99.90
47521;DHT22;32291;52.010;4.446;2023-03-15T05:22:06;0.90;99.90
47521;DHT22;32291;52.010;4.446;2023-03-15T05:23:08;0.80;99.90
47521;DHT22;32291;52.010;4.446;2023-03-15T05:24:09;0.80;99.90
47521;DHT22;32291;52.010;4.446;2023-03-15T05:25:11;0.80;99.90
47521;DHT22;32291;52.010;4.446;2023-03-15T05:26:13;0.80;99.90
47521;DHT22;32291;52.010;4.446;2023-03-15T05:27:15;0.80;99.90
47521;DHT22;32291;52.010;4.446;2023-03-15T05:28:17;0.90;99.90
47521;DHT22;32291;52.010;4.446;2023-03-15T05:29:21;0.80;99.90
47521;DHT22;32291;52.010;4.446;2023-03-15T05:30:23;0.80;99.90
47521;DHT22;32291;52.010;4.446;2023-03-15T05:31:25;0.90;99.90
47521;DHT22;32291;52.010;4.446;2023-03-15T05:32:28;0.90;99.90
47521;DHT22;32291;52.010;4.446;2023-03-15T05:33:34;0.90;99.90
47521;DHT22;32291;52.010;4.446;2023-03-15T05:34:36;0.90;99.90
47521;DHT22;32291;52.010;4.446;2023-03-15T05:35:38;0.90;99.90
47521;DHT22;32291;52.010;4.446;2023-03-15T05:36:40;0.90;99.90
47521;DHT22;32291;52.010;4.446;2023-03-15T05:37:44;1.00;99.90
47521;DHT22;32291;52.010;4.446;2023-03-15T05:38:46;0.90;99.90
47521;DHT22;32291;52.010;4.446;2023-03-15T05:39:48;0.90;99.90
47521;DHT22;32291;52.010;4.446;2023-03-15T05:40:49;0.90;99.90
47521;DHT22;32291;52.010;4.446;2023-03-15T05:41:51;0.80;99.90
47521;DHT22;32291;52.010;4.446;2023-03-15T05:42:54;0.80;99.90
47521;DHT22;32291;52.010;4.446;2023-03-15T05:43:56;0.80;99.90
47521;DHT22;32291;52.010;4.446;2023-03-15T05:44:58;0.70;99.90
47521;DHT22;32291;52.010;4.446;2023-03-15T05:46:00;0.70;99.90
47521;DHT22;32291;52.010;4.446;2023-03-15T05:47:02;0.70;99.90
47521;DHT22;32291;52.010;4.446;2023-03-15T05:48:04;0.70;99.90
47521;DHT22;32291;52.010;4.446;2023-03-15T05:49:05;0.60;99.90
47521;DHT22;32291;52.010;4.446;2023-03-15T05:50:07;0.60;99.90
47521;DHT22;32291;52.010;4.446;2023-03-15T05:51:10;0.60;99.90
47521;DHT22;32291;52.010;4.446;2023-03-15T05:52:11;0.60;99.90
47521;DHT22;32291;52.010;4.446;2023-03-15T05:53:13;0.60;99.90
47521;DHT22;32291;52.010;4.446;2023-03-15T05:54:14;0.60;99.90
47521;DHT22;32291;52.010;4.446;2023-03-15T05:55:16;0.50;99.90
47521;DHT22;32291;52.010;4.446;2023-03-15T05:56:18;0.60;99.90
47521;DHT22;32291;52.010;4.446;2023-03-15T05:57:20;0.60;99.90
47521;DHT22;32291;52.010;4.446;2023-03-15T05:58:22;0.50;99.90
47521;DHT22;32291;52.010;4.446;2023-03-15T05:59:24;0.50;99.90
47521;DHT22;32291;52.010;4.446;2023-03-15T06:00:26;0.50;99.90
47521;DHT22;32291;52.010;4.446;2023-03-15T06:01:28;0.90;99.90
47521;DHT22;32291;52.010;4.446;2023-03-15T06:02:30;0.50;99.90
47521;DHT22;32291;52.010;4.446;2023-03-15T06:03:32;0.40;99.90
47521;DHT22;32291;52.010;4.446;2023-03-15T06:04:34;0.40;99.90
47521;DHT22;32291;52.010;4.446;2023-03-15T06:05:36;0.40;99.90
47521;DHT22;32291;52.010;4.446;2023-03-15T06:06:38;0.40;99.90
47521;DHT22;32291;52.010;4.446;2023-03-15T06:07:40;0.40;99.90
47521;DHT22;32291;52.010;4.446;2023-03-15T06:08:42;0.50;99.90
47521;DHT22;32291;52.010;4.446;2023-03-15T06:09:43;0.40;99.90
47521;DHT22;32291;52.010;4.446;2023-03-15T06:10:45;0.40;99.90
47521;DHT22;32291;52.010;4.446;2023-03-15T06:11:46;0.40;99.90
47521;DHT22;32291;52.010;4.446;2023-03-15T06:12:48;0.40;99.90
47521;DHT22;32291;52.010;4.446;2023-03-15T06:13:52;0.40;99.90
47521;DHT22;32291;52.010;4.446;2023-03-15T06:14:53;0.30;99.90
47521;DHT22;32291;52.010;4.446;2023-03-15T06:15:55;0.40;99.90
47521;DHT22;32291;52.010;4.446;2023-03-15T06:16:57;0.40;99.90
47521;DHT22;32291;52.010;4.446;2023-03-15T06:17:59;0.40;99.90
47521;DHT22;32291;52.010;4.446;2023-03-15T06:19:01;0.50;99.90
47521;DHT22;32291;52.010;4.446;2023-03-15T06:20:04;0.50;99.90
47521;DHT22;32291;52.010;4.446;2023-03-15T06:21:06;0.50;99.90
47521;DHT22;32291;52.010;4.446;2023-03-15T06:22:07;0.90;99.90
47521;DHT22;32291;52.010;4.446;2023-03-15T06:23:10;0.50;99.90
47521;DHT22;32291;52.010;4.446;2023-03-15T06:24:12;0.40;99.90
47521;DHT22;32291;52.010;4.446;2023-03-15T06:25:14;0.40;99.90
47521;DHT22;32291;52.010;4.446;2023-03-15T06:26:16;0.40;99.90
47521;DHT22;32291;52.010;4.446;2023-03-15T06:27:19;0.40;99.90
47521;DHT22;32291;52.010;4.446;2023-03-15T06:28:22;0.50;99.90
47521;DHT22;32291;52.010;4.446;2023-03-15T06:29:24;0.50;99.90
47521;DHT22;32291;52.010;4.446;2023-03-15T06:30:26;0.50;99.90
47521;DHT22;32291;52.010;4.446;2023-03-15T06:31:29;0.50;99.90
47521;DHT22;32291;52.010;4.446;2023-03-15T06:32:31;0.50;99.90
47521;DHT22;32291;52.010;4.446;2023-03-15T06:33:33;0.50;99.90
47521;DHT22;32291;52.010;4.446;2023-03-15T06:34:34;0.60;99.90
47521;DHT22;32291;52.010;4.446;2023-03-15T06:35:36;0.60;99.90
47521;DHT22;32291;52.010;4.446;2023-03-15T06:36:38;0.50;99.90
47521;DHT22;32291;52.010;4.446;2023-03-15T06:37:39;0.60;99.90
47521;DHT22;32291;52.010;4.446;2023-03-15T06:38:41;0.60;99.90
47521;DHT22;32291;52.010;4.446;2023-03-15T06:39:43;0.60;99.90
47521;DHT22;32291;52.010;4.446;2023-03-15T06:40:45;0.60;99.90
47521;DHT22;32291;52.010;4.446;2023-03-15T06:41:47;0.60;99.90
47521;DHT22;32291;52.010;4.446;2023-03-15T06:42:49;0.70;99.90
47521;DHT22;32291;52.010;4.446;2023-03-15T06:43:51;0.70;99.90
47521;DHT22;32291;52.010;4.446;2023-03-15T06:44:53;0.70;99.90
47521;DHT22;32291;52.010;4.446;2023-03-15T06:45:56;0.70;99.90
47521;DHT22;32291;52.010;4.446;2023-03-15T06:47:00;0.70;99.90
47521;DHT22;32291;52.010;4.446;2023-03-15T06:48:02;0.70;99.90
47521;DHT22;32291;52.010;4.446;2023-03-15T06:49:04;0.70;99.90
47521;DHT22;32291;52.010;4.446;2023-03-15T06:50:06;0.70;99.90
47521;DHT22;32291;52.010;4.446;2023-03-15T06:51:09;0.80;99.90
47521;DHT22;32291;52.010;4.446;2023-03-15T06:52:11;0.70;99.90